sensor_id;sensor_type;location;lat;lon;timestamp;P1;durP1;ratioP1;P2;durP2;ratioP2
65533;SDS011;53640;55.838;37.184;2022-08-19T00:00:59;10.10;;;3.28;;
65533;SDS011;53640;55.838;37.184;2022-08-19T00:03:25;5.57;;;3.30;;
65533;SDS011;53640;55.838;37.184;2022-08-19T00:05:51;3.25;;;2.95;;
65533;SDS011;53640;55.838;37.184;2022-08-19T00:08:17;4.40;;;3.00;;
65533;SDS011;53640;55.838;37.184;2022-08-19T00:10:44;3.33;;;2.90;;
65533;SDS011;53640;55.838;37.184;2022-08-19T00:13:11;3.47;;;2.97;;
65533;SDS011;53640;55.838;37.184;2022-08-19T00:15:37;10.50;;;4.93;;
65533;SDS011;53640;55.838;37.184;2022-08-19T00:18:04;9.13;;;4.32;;
65533;SDS011;53640;55.838;37.184;2022-08-19T00:20:30;6.43;;;4.15;;
65533;SDS011;53640;55.838;37.184;2022-08-19T00:22:56;4.78;;;3.97;;
65533;SDS011;53640;55.838;37.184;2022-08-19T00:25:23;8.13;;;4.25;;
65533;SDS011;53640;55.838;37.184;2022-08-19T00:27:49;8.60;;;4.10;;
65533;SDS011;53640;55.838;37.184;2022-08-19T00:30:16;12.43;;;4.60;;
65533;SDS011;53640;55.838;37.184;2022-08-19T00:32:43;5.93;;;4.68;;
65533;SDS011;53640;55.838;37.184;2022-08-19T00:35:10;7.95;;;4.32;;
65533;SDS011;53640;55.838;37.184;2022-08-19T00:37:37;9.13;;;4.30;;
65533;SDS011;53640;55.838;37.184;2022-08-19T00:40:04;7.03;;;3.72;;
65533;SDS011;53640;55.838;37.184;2022-08-19T00:42:32;8.55;;;3.97;;
65533;SDS011;53640;55.838;37.184;2022-08-19T00:44:58;7.60;;;3.72;;
65533;SDS011;53640;55.838;37.184;2022-08-19T00:47:26;4.25;;;3.30;;
65533;SDS011;53640;55.838;37.184;2022-08-19T00:49:54;5.63;;;3.72;;
65533;SDS011;53640;55.838;37.184;2022-08-19T00:52:27;5.57;;;3.78;;
65533;SDS011;53640;55.838;37.184;2022-08-19T00:54:58;6.65;;;3.85;;
65533;SDS011;53640;55.838;37.184;2022-08-19T00:57:32;4.68;;;3.33;;
65533;SDS011;53640;55.838;37.184;2022-08-19T01:00:11;4.70;;;3.42;;
65533;SDS011;53640;55.838;37.184;2022-08-19T01:02:40;9.75;;;4.43;;
65533;SDS011;53640;55.838;37.184;2022-08-19T01:05:09;6.75;;;3.38;;
65533;SDS011;53640;55.838;37.184;2022-08-19T01:07:39;5.37;;;3.97;;
65533;SDS011;53640;55.838;37.184;2022-08-19T01:10:32;8.02;;;4.20;;
65533;SDS011;53640;55.838;37.184;2022-08-19T01:13:09;6.15;;;3.72;;
65533;SDS011;53640;55.838;37.184;2022-08-19T01:15:45;8.55;;;3.70;;
65533;SDS011;53640;55.838;37.184;2022-08-19T01:18:15;6.55;;;3.38;;
65533;SDS011;53640;55.838;37.184;2022-08-19T01:20:43;6.15;;;3.88;;
65533;SDS011;53640;55.838;37.184;2022-08-19T01:23:11;7.53;;;4.13;;
65533;SDS011;53640;55.838;37.184;2022-08-19T01:25:40;6.85;;;3.55;;
65533;SDS011;53640;55.838;37.184;2022-08-19T01:28:31;5.43;;;3.50;;
65533;SDS011;53640;55.838;37.184;2022-08-19T01:30:57;4.78;;;3.20;;
65533;SDS011;53640;55.838;37.184;2022-08-19T01:33:24;11.50;;;4.00;;
65533;SDS011;53640;55.838;37.184;2022-08-19T01:35:50;9.27;;;4.20;;
65533;SDS011;53640;55.838;37.184;2022-08-19T01:38:20;12.95;;;4.05;;
65533;SDS011;53640;55.838;37.184;2022-08-19T01:40:51;16.27;;;5.43;;
65533;SDS011;53640;55.838;37.184;2022-08-19T01:43:18;11.15;;;4.90;;
65533;SDS011;53640;55.838;37.184;2022-08-19T01:45:46;9.23;;;4.97;;
65533;SDS011;53640;55.838;37.184;2022-08-19T01:48:13;9.98;;;5.03;;
65533;SDS011;53640;55.838;37.184;2022-08-19T01:50:41;6.07;;;4.55;;
65533;SDS011;53640;55.838;37.184;2022-08-19T01:53:09;13.73;;;5.15;;
65533;SDS011;53640;55.838;37.184;2022-08-19T01:55:38;12.32;;;6.10;;
65533;SDS011;53640;55.838;37.184;2022-08-19T01:58:08;16.23;;;5.72;;
65533;SDS011;53640;55.838;37.184;2022-08-19T02:00:43;14.88;;;5.53;;
65533;SDS011;53640;55.838;37.184;2022-08-19T02:03:11;16.35;;;5.97;;
65533;SDS011;53640;55.838;37.184;2022-08-19T02:05:37;9.30;;;5.43;;
65533;SDS011;53640;55.838;37.184;2022-08-19T02:08:04;11.57;;;5.55;;
65533;SDS011;53640;55.838;37.184;2022-08-19T02:10:31;7.60;;;4.65;;
65533;SDS011;53640;55.838;37.184;2022-08-19T02:12:58;9.18;;;4.40;;
65533;SDS011;53640;55.838;37.184;2022-08-19T02:15:24;10.15;;;4.78;;
65533;SDS011;53640;55.838;37.184;2022-08-19T02:17:51;13.68;;;5.70;;
65533;SDS011;53640;55.838;37.184;2022-08-19T02:20:17;10.95;;;4.90;;
65533;SDS011;53640;55.838;37.184;2022-08-19T02:22:44;9.82;;;4.80;;
65533;SDS011;53640;55.838;37.184;2022-08-19T02:25:11;10.07;;;4.97;;
65533;SDS011;53640;55.838;37.184;2022-08-19T02:27:39;8.65;;;5.22;;
65533;SDS011;53640;55.838;37.184;2022-08-19T02:30:07;13.82;;;6.55;;
65533;SDS011;53640;55.838;37.184;2022-08-19T02:32:35;8.07;;;5.15;;
65533;SDS011;53640;55.838;37.184;2022-08-19T02:35:02;15.07;;;5.47;;
65533;SDS011;53640;55.838;37.184;2022-08-19T02:37:29;18.85;;;6.07;;
65533;SDS011;53640;55.838;37.184;2022-08-19T02:40:13;13.73;;;5.32;;
65533;SDS011;53640;55.838;37.184;2022-08-19T02:42:40;10.48;;;4.70;;
65533;SDS011;53640;55.838;37.184;2022-08-19T02:45:07;11.80;;;5.82;;
65533;SDS011;53640;55.838;37.184;2022-08-19T02:47:33;7.07;;;4.38;;
65533;SDS011;53640;55.838;37.184;2022-08-19T02:50:00;8.52;;;4.85;;
65533;SDS011;53640;55.838;37.184;2022-08-19T02:52:28;8.43;;;5.28;;
65533;SDS011;53640;55.838;37.184;2022-08-19T02:54:54;9.27;;;5.22;;
65533;SDS011;53640;55.838;37.184;2022-08-19T02:57:23;11.98;;;6.50;;
65533;SDS011;53640;55.838;37.184;2022-08-19T02:59:50;13.85;;;6.07;;
65533;SDS011;53640;55.838;37.184;2022-08-19T03:02:16;13.52;;;6.82;;
65533;SDS011;53640;55.838;37.184;2022-08-19T03:04:43;11.63;;;6.57;;
65533;SDS011;53640;55.838;37.184;2022-08-19T03:07:09;12.75;;;6.15;;
65533;SDS011;53640;55.838;37.184;2022-08-19T03:09:39;15.55;;;6.32;;
65533;SDS011;53640;55.838;37.184;2022-08-19T03:12:07;13.73;;;6.40;;
65533;SDS011;53640;55.838;37.184;2022-08-19T03:14:34;13.27;;;5.93;;
65533;SDS011;53640;55.838;37.184;2022-08-19T03:17:01;10.30;;;5.78;;
65533;SDS011;53640;55.838;37.184;2022-08-19T03:19:29;11.63;;;5.65;;
65533;SDS011;53640;55.838;37.184;2022-08-19T03:21:55;18.95;;;6.47;;
65533;SDS011;53640;55.838;37.184;2022-08-19T03:24:21;21.65;;;6.53;;
65533;SDS011;53640;55.838;37.184;2022-08-19T03:26:49;18.85;;;6.72;;
65533;SDS011;53640;55.838;37.184;2022-08-19T03:29:18;13.88;;;6.55;;
65533;SDS011;53640;55.838;37.184;2022-08-19T03:31:45;10.55;;;5.43;;
65533;SDS011;53640;55.838;37.184;2022-08-19T03:34:12;12.32;;;5.78;;
65533;SDS011;53640;55.838;37.184;2022-08-19T03:36:40;14.98;;;5.95;;
65533;SDS011;53640;55.838;37.184;2022-08-19T03:39:07;14.93;;;6.30;;
65533;SDS011;53640;55.838;37.184;2022-08-19T03:41:37;17.60;;;5.78;;
65533;SDS011;53640;55.838;37.184;2022-08-19T03:44:05;15.52;;;6.13;;
65533;SDS011;53640;55.838;37.184;2022-08-19T03:46:31;12.73;;;5.78;;
65533;SDS011;53640;55.838;37.184;2022-08-19T03:49:00;11.32;;;5.30;;
65533;SDS011;53640;55.838;37.184;2022-08-19T03:51:35;16.70;;;5.10;;
65533;SDS011;53640;55.838;37.184;2022-08-19T03:54:05;13.15;;;5.47;;
65533;SDS011;53640;55.838;37.184;2022-08-19T03:56:35;18.48;;;5.95;;
65533;SDS011;53640;55.838;37.184;2022-08-19T03:59:04;13.73;;;5.45;;
65533;SDS011;53640;55.838;37.184;2022-08-19T04:01:32;9.60;;;4.88;;
65533;SDS011;53640;55.838;37.184;2022-08-19T04:03:59;11.40;;;5.50;;
65533;SDS011;53640;55.838;37.184;2022-08-19T04:06:30;11.35;;;5.55;;
65533;SDS011;53640;55.838;37.184;2022-08-19T04:08:59;10.75;;;5.35;;
65533;SDS011;53640;55.838;37.184;2022-08-19T04:11:29;14.50;;;5.85;;
65533;SDS011;53640;55.838;37.184;2022-08-19T04:13:59;24.38;;;5.68;;
65533;SDS011;53640;55.838;37.184;2022-08-19T04:16:26;16.33;;;5.68;;
65533;SDS011;53640;55.838;37.184;2022-08-19T04:18:56;12.00;;;4.80;;
65533;SDS011;53640;55.838;37.184;2022-08-19T04:21:27;8.93;;;4.30;;
65533;SDS011;53640;55.838;37.184;2022-08-19T04:23:54;16.05;;;5.00;;
65533;SDS011;53640;55.838;37.184;2022-08-19T04:26:23;9.93;;;5.30;;
65533;SDS011;53640;55.838;37.184;2022-08-19T04:28:51;16.58;;;5.78;;
65533;SDS011;53640;55.838;37.184;2022-08-19T04:31:20;14.65;;;5.78;;
65533;SDS011;53640;55.838;37.184;2022-08-19T04:33:48;12.27;;;4.80;;
65533;SDS011;53640;55.838;37.184;2022-08-19T04:36:22;10.95;;;5.15;;
65533;SDS011;53640;55.838;37.184;2022-08-19T04:38:50;10.57;;;5.15;;
65533;SDS011;53640;55.838;37.184;2022-08-19T04:41:20;12.68;;;5.70;;
65533;SDS011;53640;55.838;37.184;2022-08-19T04:44:05;12.98;;;4.93;;
65533;SDS011;53640;55.838;37.184;2022-08-19T04:46:32;15.27;;;4.95;;
65533;SDS011;53640;55.838;37.184;2022-08-19T04:49:00;11.43;;;3.95;;
65533;SDS011;53640;55.838;37.184;2022-08-19T04:51:27;10.00;;;4.03;;
65533;SDS011;53640;55.838;37.184;2022-08-19T04:53:57;8.43;;;4.63;;
65533;SDS011;53640;55.838;37.184;2022-08-19T04:56:25;10.75;;;4.75;;
65533;SDS011;53640;55.838;37.184;2022-08-19T04:58:53;8.82;;;4.47;;
65533;SDS011;53640;55.838;37.184;2022-08-19T05:01:25;13.02;;;4.55;;
65533;SDS011;53640;55.838;37.184;2022-08-19T05:03:54;11.55;;;4.32;;
65533;SDS011;53640;55.838;37.184;2022-08-19T05:06:22;6.38;;;3.92;;
65533;SDS011;53640;55.838;37.184;2022-08-19T05:08:49;8.95;;;4.00;;
65533;SDS011;53640;55.838;37.184;2022-08-19T05:11:17;8.95;;;4.30;;
65533;SDS011;53640;55.838;37.184;2022-08-19T05:13:48;11.55;;;4.03;;
65533;SDS011;53640;55.838;37.184;2022-08-19T05:16:16;10.30;;;4.22;;
65533;SDS011;53640;55.838;37.184;2022-08-19T05:18:43;20.98;;;4.68;;
65533;SDS011;53640;55.838;37.184;2022-08-19T05:21:28;12.45;;;4.47;;
65533;SDS011;53640;55.838;37.184;2022-08-19T05:24:14;13.40;;;3.92;;
65533;SDS011;53640;55.838;37.184;2022-08-19T05:26:44;9.07;;;4.00;;
65533;SDS011;53640;55.838;37.184;2022-08-19T05:29:16;9.50;;;3.92;;
65533;SDS011;53640;55.838;37.184;2022-08-19T05:31:45;6.03;;;3.47;;
65533;SDS011;53640;55.838;37.184;2022-08-19T05:34:15;7.53;;;3.47;;
65533;SDS011;53640;55.838;37.184;2022-08-19T05:36:43;7.57;;;4.10;;
65533;SDS011;53640;55.838;37.184;2022-08-19T05:39:13;4.80;;;2.78;;
65533;SDS011;53640;55.838;37.184;2022-08-19T05:41:46;5.50;;;3.33;;
65533;SDS011;53640;55.838;37.184;2022-08-19T05:44:14;15.02;;;3.00;;
65533;SDS011;53640;55.838;37.184;2022-08-19T05:46:43;5.50;;;2.88;;
65533;SDS011;53640;55.838;37.184;2022-08-19T05:49:13;5.15;;;2.72;;
65533;SDS011;53640;55.838;37.184;2022-08-19T05:51:41;5.40;;;2.88;;
65533;SDS011;53640;55.838;37.184;2022-08-19T05:54:08;6.65;;;3.20;;
65533;SDS011;53640;55.838;37.184;2022-08-19T05:56:37;5.30;;;3.05;;
65533;SDS011;53640;55.838;37.184;2022-08-19T05:59:04;4.20;;;2.92;;
65533;SDS011;53640;55.838;37.184;2022-08-19T06:01:35;3.70;;;2.30;;
65533;SDS011;53640;55.838;37.184;2022-08-19T06:04:03;4.53;;;2.78;;
65533;SDS011;53640;55.838;37.184;2022-08-19T06:06:30;8.05;;;2.88;;
65533;SDS011;53640;55.838;37.184;2022-08-19T06:08:56;6.72;;;3.10;;
65533;SDS011;53640;55.838;37.184;2022-08-19T06:11:39;5.90;;;2.85;;
65533;SDS011;53640;55.838;37.184;2022-08-19T06:14:12;9.90;;;3.55;;
65533;SDS011;53640;55.838;37.184;2022-08-19T06:16:41;7.10;;;3.03;;
65533;SDS011;53640;55.838;37.184;2022-08-19T06:19:10;4.82;;;3.13;;
65533;SDS011;53640;55.838;37.184;2022-08-19T06:21:38;5.97;;;3.03;;
65533;SDS011;53640;55.838;37.184;2022-08-19T06:24:08;10.88;;;3.20;;
65533;SDS011;53640;55.838;37.184;2022-08-19T06:26:36;5.75;;;3.05;;
65533;SDS011;53640;55.838;37.184;2022-08-19T06:29:05;4.85;;;3.05;;
65533;SDS011;53640;55.838;37.184;2022-08-19T06:31:33;3.97;;;3.13;;
65533;SDS011;53640;55.838;37.184;2022-08-19T06:34:01;6.80;;;3.53;;
65533;SDS011;53640;55.838;37.184;2022-08-19T06:36:30;8.48;;;3.70;;
65533;SDS011;53640;55.838;37.184;2022-08-19T06:39:03;9.63;;;3.33;;
65533;SDS011;53640;55.838;37.184;2022-08-19T06:41:34;5.72;;;3.25;;
65533;SDS011;53640;55.838;37.184;2022-08-19T06:44:03;8.90;;;3.33;;
65533;SDS011;53640;55.838;37.184;2022-08-19T06:46:30;6.63;;;4.13;;
65533;SDS011;53640;55.838;37.184;2022-08-19T06:48:56;13.30;;;4.40;;
65533;SDS011;53640;55.838;37.184;2022-08-19T06:51:23;11.40;;;3.42;;
65533;SDS011;53640;55.838;37.184;2022-08-19T06:53:51;2.97;;;2.67;;
65533;SDS011;53640;55.838;37.184;2022-08-19T06:56:20;5.03;;;2.72;;
65533;SDS011;53640;55.838;37.184;2022-08-19T06:59:07;9.18;;;3.83;;
65533;SDS011;53640;55.838;37.184;2022-08-19T07:01:39;12.88;;;4.07;;
65533;SDS011;53640;55.838;37.184;2022-08-19T07:04:15;9.63;;;3.78;;
65533;SDS011;53640;55.838;37.184;2022-08-19T07:06:43;11.65;;;3.90;;
65533;SDS011;53640;55.838;37.184;2022-08-19T07:09:12;16.65;;;3.65;;
65533;SDS011;53640;55.838;37.184;2022-08-19T07:11:45;10.27;;;3.47;;
65533;SDS011;53640;55.838;37.184;2022-08-19T07:14:13;6.93;;;3.45;;
65533;SDS011;53640;55.838;37.184;2022-08-19T07:16:44;9.73;;;4.07;;
65533;SDS011;53640;55.838;37.184;2022-08-19T07:19:12;9.15;;;3.72;;
65533;SDS011;53640;55.838;37.184;2022-08-19T07:21:40;6.25;;;3.30;;
65533;SDS011;53640;55.838;37.184;2022-08-19T07:24:07;9.15;;;3.53;;
65533;SDS011;53640;55.838;37.184;2022-08-19T07:26:41;9.15;;;3.33;;
65533;SDS011;53640;55.838;37.184;2022-08-19T07:29:08;7.13;;;3.28;;
65533;SDS011;53640;55.838;37.184;2022-08-19T07:31:36;5.47;;;3.03;;
65533;SDS011;53640;55.838;37.184;2022-08-19T07:34:04;9.20;;;3.40;;
65533;SDS011;53640;55.838;37.184;2022-08-19T07:36:33;11.93;;;3.45;;
65533;SDS011;53640;55.838;37.184;2022-08-19T07:39:03;8.55;;;3.50;;
65533;SDS011;53640;55.838;37.184;2022-08-19T07:41:34;7.03;;;3.60;;
65533;SDS011;53640;55.838;37.184;2022-08-19T07:44:02;10.30;;;3.45;;
65533;SDS011;53640;55.838;37.184;2022-08-19T07:46:30;4.28;;;2.53;;
65533;SDS011;53640;55.838;37.184;2022-08-19T07:48:58;9.60;;;3.97;;
65533;SDS011;53640;55.838;37.184;2022-08-19T07:51:26;5.03;;;3.40;;
65533;SDS011;53640;55.838;37.184;2022-08-19T07:53:53;8.00;;;3.08;;
65533;SDS011;53640;55.838;37.184;2022-08-19T07:56:20;8.23;;;3.45;;
65533;SDS011;53640;55.838;37.184;2022-08-19T07:58:48;7.90;;;3.10;;
65533;SDS011;53640;55.838;37.184;2022-08-19T08:01:19;5.13;;;3.85;;
65533;SDS011;53640;55.838;37.184;2022-08-19T08:03:51;9.70;;;3.60;;
65533;SDS011;53640;55.838;37.184;2022-08-19T08:06:36;7.38;;;3.05;;
65533;SDS011;53640;55.838;37.184;2022-08-19T08:09:24;4.60;;;3.30;;
65533;SDS011;53640;55.838;37.184;2022-08-19T08:14:24;15.05;;;3.80;;
65533;SDS011;53640;55.838;37.184;2022-08-19T08:16:56;6.07;;;3.03;;
65533;SDS011;53640;55.838;37.184;2022-08-19T08:19:23;12.80;;;4.07;;
65533;SDS011;53640;55.838;37.184;2022-08-19T08:21:53;9.18;;;3.20;;
65533;SDS011;53640;55.838;37.184;2022-08-19T08:24:24;6.45;;;3.00;;
65533;SDS011;53640;55.838;37.184;2022-08-19T08:26:53;5.63;;;3.00;;
65533;SDS011;53640;55.838;37.184;2022-08-19T08:29:20;8.18;;;3.28;;
65533;SDS011;53640;55.838;37.184;2022-08-19T08:31:47;5.32;;;2.50;;
65533;SDS011;53640;55.838;37.184;2022-08-19T08:34:13;11.85;;;3.30;;
65533;SDS011;53640;55.838;37.184;2022-08-19T08:36:42;13.30;;;3.15;;
65533;SDS011;53640;55.838;37.184;2022-08-19T08:39:20;11.07;;;2.90;;
65533;SDS011;53640;55.838;37.184;2022-08-19T08:44:28;9.93;;;2.40;;
65533;SDS011;53640;55.838;37.184;2022-08-19T08:47:09;6.65;;;2.63;;
65533;SDS011;53640;55.838;37.184;2022-08-19T08:49:41;4.30;;;2.35;;
65533;SDS011;53640;55.838;37.184;2022-08-19T08:52:27;6.47;;;2.28;;
65533;SDS011;53640;55.838;37.184;2022-08-19T08:54:57;12.82;;;2.88;;
65533;SDS011;53640;55.838;37.184;2022-08-19T08:57:27;4.13;;;2.20;;
65533;SDS011;53640;55.838;37.184;2022-08-19T08:59:58;8.15;;;2.53;;
65533;SDS011;53640;55.838;37.184;2022-08-19T09:02:29;6.45;;;2.75;;
65533;SDS011;53640;55.838;37.184;2022-08-19T09:04:56;7.10;;;2.90;;
65533;SDS011;53640;55.838;37.184;2022-08-19T09:07:40;2.90;;;2.40;;
65533;SDS011;53640;55.838;37.184;2022-08-19T09:13:18;8.48;;;3.03;;
65533;SDS011;53640;55.838;37.184;2022-08-19T09:16:04;5.30;;;3.15;;
65533;SDS011;53640;55.838;37.184;2022-08-19T09:18:40;9.85;;;3.03;;
65533;SDS011;53640;55.838;37.184;2022-08-19T09:21:13;3.90;;;3.15;;
65533;SDS011;53640;55.838;37.184;2022-08-19T09:23:41;5.18;;;3.20;;
65533;SDS011;53640;55.838;37.184;2022-08-19T09:26:13;9.43;;;3.47;;
65533;SDS011;53640;55.838;37.184;2022-08-19T09:28:41;8.02;;;3.30;;
65533;SDS011;53640;55.838;37.184;2022-08-19T09:31:13;9.20;;;3.38;;
65533;SDS011;53640;55.838;37.184;2022-08-19T09:33:41;7.65;;;3.65;;
65533;SDS011;53640;55.838;37.184;2022-08-19T09:36:12;6.40;;;2.72;;
65533;SDS011;53640;55.838;37.184;2022-08-19T09:38:43;4.88;;;2.78;;
65533;SDS011;53640;55.838;37.184;2022-08-19T09:41:15;7.22;;;3.65;;
65533;SDS011;53640;55.838;37.184;2022-08-19T09:43:47;9.05;;;3.40;;
65533;SDS011;53640;55.838;37.184;2022-08-19T09:46:32;8.30;;;2.92;;
65533;SDS011;53640;55.838;37.184;2022-08-19T09:48:59;4.28;;;2.88;;
65533;SDS011;53640;55.838;37.184;2022-08-19T09:51:26;6.95;;;3.28;;
65533;SDS011;53640;55.838;37.184;2022-08-19T09:53:55;3.72;;;2.72;;
65533;SDS011;53640;55.838;37.184;2022-08-19T09:58:52;7.60;;;3.22;;
65533;SDS011;53640;55.838;37.184;2022-08-19T10:01:20;7.18;;;3.30;;
65533;SDS011;53640;55.838;37.184;2022-08-19T10:03:50;6.03;;;3.20;;
65533;SDS011;53640;55.838;37.184;2022-08-19T10:06:20;8.13;;;3.65;;
65533;SDS011;53640;55.838;37.184;2022-08-19T10:08:48;12.70;;;3.90;;
65533;SDS011;53640;55.838;37.184;2022-08-19T10:11:17;8.45;;;3.38;;
65533;SDS011;53640;55.838;37.184;2022-08-19T10:13:46;6.80;;;3.70;;
65533;SDS011;53640;55.838;37.184;2022-08-19T10:16:14;15.65;;;3.60;;
65533;SDS011;53640;55.838;37.184;2022-08-19T10:18:45;4.78;;;3.03;;
65533;SDS011;53640;55.838;37.184;2022-08-19T10:21:13;3.95;;;2.83;;
65533;SDS011;53640;55.838;37.184;2022-08-19T10:23:43;4.72;;;3.05;;
65533;SDS011;53640;55.838;37.184;2022-08-19T10:26:15;6.63;;;2.75;;
65533;SDS011;53640;55.838;37.184;2022-08-19T10:28:46;12.75;;;3.03;;
65533;SDS011;53640;55.838;37.184;2022-08-19T10:31:15;4.70;;;3.13;;
65533;SDS011;53640;55.838;37.184;2022-08-19T10:36:43;13.80;;;3.38;;
65533;SDS011;53640;55.838;37.184;2022-08-19T10:39:09;9.38;;;3.17;;
65533;SDS011;53640;55.838;37.184;2022-08-19T10:41:37;9.55;;;2.80;;
65533;SDS011;53640;55.838;37.184;2022-08-19T10:44:06;27.60;;;3.45;;
65533;SDS011;53640;55.838;37.184;2022-08-19T10:46:36;6.95;;;3.10;;
65533;SDS011;53640;55.838;37.184;2022-08-19T10:49:04;5.95;;;3.08;;
65533;SDS011;53640;55.838;37.184;2022-08-19T10:51:31;7.32;;;3.67;;
65533;SDS011;53640;55.838;37.184;2022-08-19T10:54:17;4.38;;;2.83;;
65533;SDS011;53640;55.838;37.184;2022-08-19T10:56:44;8.18;;;3.63;;
65533;SDS011;53640;55.838;37.184;2022-08-19T10:59:24;7.45;;;3.50;;
65533;SDS011;53640;55.838;37.184;2022-08-19T11:01:53;3.40;;;2.75;;
65533;SDS011;53640;55.838;37.184;2022-08-19T11:06:53;19.50;;;4.20;;
65533;SDS011;53640;55.838;37.184;2022-08-19T11:09:22;4.00;;;3.50;;
65533;SDS011;53640;55.838;37.184;2022-08-19T11:11:53;7.10;;;3.42;;
65533;SDS011;53640;55.838;37.184;2022-08-19T11:14:20;8.60;;;3.45;;
65533;SDS011;53640;55.838;37.184;2022-08-19T11:16:52;8.75;;;4.25;;
65533;SDS011;53640;55.838;37.184;2022-08-19T11:19:24;10.38;;;4.35;;
65533;SDS011;53640;55.838;37.184;2022-08-19T11:21:51;10.88;;;4.10;;
65533;SDS011;53640;55.838;37.184;2022-08-19T11:24:21;6.85;;;3.90;;
65533;SDS011;53640;55.838;37.184;2022-08-19T11:26:50;8.25;;;4.45;;
65533;SDS011;53640;55.838;37.184;2022-08-19T11:29:20;11.90;;;4.78;;
65533;SDS011;53640;55.838;37.184;2022-08-19T11:31:48;4.78;;;3.78;;
65533;SDS011;53640;55.838;37.184;2022-08-19T11:34:17;15.80;;;3.80;;
65533;SDS011;53640;55.838;37.184;2022-08-19T11:36:46;7.07;;;3.40;;
65533;SDS011;53640;55.838;37.184;2022-08-19T11:39:14;5.68;;;2.50;;
65533;SDS011;53640;55.838;37.184;2022-08-19T11:41:42;4.78;;;2.97;;
65533;SDS011;53640;55.838;37.184;2022-08-19T11:44:09;6.53;;;3.13;;
65533;SDS011;53640;55.838;37.184;2022-08-19T11:46:37;8.60;;;2.72;;
65533;SDS011;53640;55.838;37.184;2022-08-19T11:49:03;5.47;;;2.80;;
65533;SDS011;53640;55.838;37.184;2022-08-19T11:51:33;8.90;;;2.72;;
65533;SDS011;53640;55.838;37.184;2022-08-19T11:53:59;6.25;;;2.60;;
65533;SDS011;53640;55.838;37.184;2022-08-19T11:56:26;10.43;;;3.03;;
65533;SDS011;53640;55.838;37.184;2022-08-19T11:58:54;4.03;;;2.20;;
65533;SDS011;53640;55.838;37.184;2022-08-19T12:01:23;4.78;;;2.60;;
65533;SDS011;53640;55.838;37.184;2022-08-19T12:03:51;4.72;;;2.60;;
65533;SDS011;53640;55.838;37.184;2022-08-19T12:06:23;3.78;;;2.30;;
65533;SDS011;53640;55.838;37.184;2022-08-19T12:08:55;8.23;;;3.08;;
65533;SDS011;53640;55.838;37.184;2022-08-19T12:11:22;6.07;;;2.55;;
65533;SDS011;53640;55.838;37.184;2022-08-19T12:13:50;4.95;;;2.50;;
65533;SDS011;53640;55.838;37.184;2022-08-19T12:16:17;3.38;;;2.38;;
65533;SDS011;53640;55.838;37.184;2022-08-19T12:18:46;7.03;;;2.65;;
65533;SDS011;53640;55.838;37.184;2022-08-19T12:21:14;7.97;;;2.80;;
65533;SDS011;53640;55.838;37.184;2022-08-19T12:23:42;8.65;;;3.00;;
65533;SDS011;53640;55.838;37.184;2022-08-19T12:26:09;5.85;;;2.40;;
65533;SDS011;53640;55.838;37.184;2022-08-19T12:28:37;6.85;;;2.95;;
65533;SDS011;53640;55.838;37.184;2022-08-19T12:31:04;7.05;;;2.90;;
65533;SDS011;53640;55.838;37.184;2022-08-19T12:33:32;5.40;;;2.60;;
65533;SDS011;53640;55.838;37.184;2022-08-19T12:36:05;8.23;;;2.50;;
65533;SDS011;53640;55.838;37.184;2022-08-19T12:38:36;7.68;;;2.80;;
65533;SDS011;53640;55.838;37.184;2022-08-19T12:41:04;6.78;;;2.83;;
65533;SDS011;53640;55.838;37.184;2022-08-19T12:43:32;6.80;;;2.75;;
65533;SDS011;53640;55.838;37.184;2022-08-19T12:46:01;6.45;;;2.38;;
65533;SDS011;53640;55.838;37.184;2022-08-19T12:48:31;6.18;;;3.00;;
65533;SDS011;53640;55.838;37.184;2022-08-19T12:50:58;6.88;;;2.60;;
65533;SDS011;53640;55.838;37.184;2022-08-19T12:53:24;5.07;;;2.78;;
65533;SDS011;53640;55.838;37.184;2022-08-19T12:55:55;7.30;;;2.13;;
65533;SDS011;53640;55.838;37.184;2022-08-19T13:00:49;11.00;;;2.67;;
65533;SDS011;53640;55.838;37.184;2022-08-19T13:03:15;4.57;;;2.08;;
65533;SDS011;53640;55.838;37.184;2022-08-19T13:05:41;6.38;;;2.83;;
65533;SDS011;53640;55.838;37.184;2022-08-19T13:08:08;5.32;;;2.65;;
65533;SDS011;53640;55.838;37.184;2022-08-19T13:10:35;3.92;;;2.55;;
65533;SDS011;53640;55.838;37.184;2022-08-19T13:13:06;4.00;;;2.72;;
65533;SDS011;53640;55.838;37.184;2022-08-19T13:15:36;3.78;;;2.13;;
65533;SDS011;53640;55.838;37.184;2022-08-19T13:18:05;4.05;;;2.70;;
65533;SDS011;53640;55.838;37.184;2022-08-19T13:20:34;8.10;;;2.45;;
65533;SDS011;53640;55.838;37.184;2022-08-19T13:23:01;6.68;;;2.72;;
65533;SDS011;53640;55.838;37.184;2022-08-19T13:25:27;5.22;;;2.10;;
65533;SDS011;53640;55.838;37.184;2022-08-19T13:27:54;9.50;;;2.40;;
65533;SDS011;53640;55.838;37.184;2022-08-19T13:30:21;2.40;;;2.20;;
65533;SDS011;53640;55.838;37.184;2022-08-19T13:33:06;6.90;;;2.45;;
65533;SDS011;53640;55.838;37.184;2022-08-19T13:35:44;7.40;;;2.60;;
65533;SDS011;53640;55.838;37.184;2022-08-19T13:38:11;3.67;;;2.10;;
65533;SDS011;53640;55.838;37.184;2022-08-19T13:40:39;3.78;;;2.58;;
65533;SDS011;53640;55.838;37.184;2022-08-19T13:43:06;7.65;;;2.55;;
65533;SDS011;53640;55.838;37.184;2022-08-19T13:45:34;16.73;;;3.75;;
65533;SDS011;53640;55.838;37.184;2022-08-19T13:48:02;11.32;;;2.67;;
65533;SDS011;53640;55.838;37.184;2022-08-19T13:50:38;8.10;;;3.13;;
65533;SDS011;53640;55.838;37.184;2022-08-19T13:53:08;6.75;;;3.67;;
65533;SDS011;53640;55.838;37.184;2022-08-19T13:55:39;4.97;;;3.40;;
65533;SDS011;53640;55.838;37.184;2022-08-19T13:58:06;7.28;;;4.57;;
65533;SDS011;53640;55.838;37.184;2022-08-19T14:00:35;4.88;;;3.60;;
65533;SDS011;53640;55.838;37.184;2022-08-19T14:03:05;11.90;;;4.53;;
65533;SDS011;53640;55.838;37.184;2022-08-19T14:05:31;5.35;;;3.67;;
65533;SDS011;53640;55.838;37.184;2022-08-19T14:07:59;6.13;;;4.43;;
65533;SDS011;53640;55.838;37.184;2022-08-19T14:10:26;5.57;;;3.88;;
65533;SDS011;53640;55.838;37.184;2022-08-19T14:12:54;5.47;;;3.65;;
65533;SDS011;53640;55.838;37.184;2022-08-19T14:15:24;5.05;;;3.10;;
65533;SDS011;53640;55.838;37.184;2022-08-19T14:17:51;4.10;;;2.95;;
65533;SDS011;53640;55.838;37.184;2022-08-19T14:20:18;4.55;;;2.75;;
65533;SDS011;53640;55.838;37.184;2022-08-19T14:22:44;5.57;;;3.22;;
65533;SDS011;53640;55.838;37.184;2022-08-19T14:25:14;6.75;;;2.90;;
65533;SDS011;53640;55.838;37.184;2022-08-19T14:27:43;6.50;;;3.10;;
65533;SDS011;53640;55.838;37.184;2022-08-19T14:30:11;4.18;;;3.22;;
65533;SDS011;53640;55.838;37.184;2022-08-19T14:32:40;6.30;;;3.28;;
65533;SDS011;53640;55.838;37.184;2022-08-19T14:35:09;3.65;;;2.95;;
65533;SDS011;53640;55.838;37.184;2022-08-19T14:37:36;3.00;;;2.60;;
65533;SDS011;53640;55.838;37.184;2022-08-19T14:40:02;4.88;;;2.90;;
65533;SDS011;53640;55.838;37.184;2022-08-19T14:42:30;10.15;;;3.20;;
65533;SDS011;53640;55.838;37.184;2022-08-19T14:45:00;9.85;;;2.97;;
65533;SDS011;53640;55.838;37.184;2022-08-19T14:47:26;11.30;;;3.20;;
65533;SDS011;53640;55.838;37.184;2022-08-19T14:49:53;4.68;;;2.58;;
65533;SDS011;53640;55.838;37.184;2022-08-19T14:52:20;5.78;;;2.95;;
65533;SDS011;53640;55.838;37.184;2022-08-19T14:54:46;6.32;;;2.42;;
65533;SDS011;53640;55.838;37.184;2022-08-19T14:57:13;6.22;;;2.75;;
65533;SDS011;53640;55.838;37.184;2022-08-19T14:59:42;3.75;;;2.60;;
65533;SDS011;53640;55.838;37.184;2022-08-19T15:02:09;12.20;;;2.90;;